createdAt,value
2018-04-11T00:00:29.554Z,21.44
2018-04-11T00:01:01.139Z,21.42
2018-04-11T00:01:32.730Z,21.41
2018-04-11T00:02:04.343Z,21.40
2018-04-11T00:02:35.953Z,21.40
2018-04-11T00:03:07.557Z,21.40
2018-04-11T00:03:39.170Z,21.41
2018-04-11T00:04:10.777Z,21.41
2018-04-11T00:04:42.393Z,21.42
2018-04-11T00:05:13.989Z,21.42
2018-04-11T00:05:45.596Z,21.41
2018-04-11T00:06:17.186Z,21.42
2018-04-11T00:06:48.779Z,21.45
2018-04-11T00:07:20.406Z,21.45
2018-04-11T00:07:52.065Z,21.45
2018-04-11T00:08:23.659Z,21.45
2018-04-11T00:08:55.257Z,21.45
2018-04-11T00:09:26.861Z,21.46
2018-04-11T00:09:58.441Z,21.48
2018-04-11T00:10:30.036Z,21.48
2018-04-11T00:11:01.651Z,21.48
2018-04-11T00:11:33.253Z,21.50
2018-04-11T00:12:04.877Z,21.50
2018-04-11T00:12:36.528Z,21.49
2018-04-11T00:13:08.123Z,21.49
2018-04-11T00:13:39.734Z,21.49
2018-04-11T00:14:11.313Z,21.45
2018-04-11T00:14:42.930Z,21.48
2018-04-11T00:15:14.565Z,21.48
2018-04-11T00:15:46.172Z,21.48
2018-04-11T00:16:17.833Z,21.48
2018-04-11T00:16:49.427Z,21.48
2018-04-11T00:17:21.040Z,21.47
2018-04-11T00:17:52.629Z,21.45
2018-04-11T00:18:24.211Z,21.48
2018-04-11T00:18:55.798Z,21.48
2018-04-11T00:19:27.387Z,21.51
2018-04-11T00:19:58.969Z,21.51
2018-04-11T00:20:30.595Z,21.50
2018-04-11T00:21:02.204Z,21.50
2018-04-11T00:21:33.843Z,21.51
2018-04-11T00:22:05.462Z,21.50
2018-04-11T00:22:37.051Z,21.49
2018-04-11T00:23:08.647Z,21.48
2018-04-11T00:23:40.253Z,21.47
2018-04-11T00:24:11.846Z,21.47
2018-04-11T00:24:43.459Z,21.48
2018-04-11T00:25:15.074Z,21.48
2018-04-11T00:25:46.718Z,21.48
2018-04-11T00:26:18.306Z,21.47
2018-04-11T00:26:49.970Z,21.47
2018-04-11T00:27:21.570Z,21.45
2018-04-11T00:27:53.147Z,21.45
2018-04-11T00:28:24.755Z,21.45
2018-04-11T00:28:56.347Z,21.43
2018-04-11T00:29:27.934Z,21.43
2018-04-11T00:29:59.542Z,21.43
2018-04-11T00:30:31.125Z,21.42
2018-04-11T00:31:02.735Z,21.44
2018-04-11T00:31:34.354Z,21.41
2018-04-11T00:32:06.023Z,21.42
2018-04-11T00:32:37.650Z,21.41
2018-04-11T00:33:09.263Z,21.42
2018-04-11T00:33:40.913Z,21.42
2018-04-11T00:34:12.538Z,21.43
2018-04-11T00:34:44.150Z,21.43
2018-04-11T00:35:15.765Z,21.44
2018-04-11T00:35:47.354Z,21.45
2018-04-11T00:36:18.975Z,21.44
2018-04-11T00:36:50.595Z,21.45
2018-04-11T00:37:22.216Z,21.46
2018-04-11T00:37:53.811Z,21.45
2018-04-11T00:38:25.409Z,21.45
2018-04-11T00:38:56.989Z,21.45
2018-04-11T00:39:28.582Z,21.46
2018-04-11T00:40:00.199Z,21.48
2018-04-11T00:40:31.810Z,21.46
2018-04-11T00:41:03.407Z,21.47
2018-04-11T00:41:35.059Z,21.47
2018-04-11T00:42:06.651Z,21.50
2018-04-11T00:42:38.239Z,21.50
2018-04-11T00:43:09.826Z,21.48
2018-04-11T00:43:41.400Z,21.46
2018-04-11T00:44:13.001Z,21.47
2018-04-11T00:44:44.664Z,21.45
2018-04-11T00:45:16.279Z,21.47
2018-04-11T00:45:47.894Z,21.47
2018-04-11T00:46:19.498Z,21.48
2018-04-11T00:46:51.114Z,21.48
2018-04-11T00:47:22.783Z,21.50
2018-04-11T00:47:54.375Z,21.50
2018-04-11T00:48:25.986Z,21.49
2018-04-11T00:48:57.608Z,21.46
2018-04-11T00:49:29.197Z,21.47
2018-04-11T00:50:00.787Z,21.49
2018-04-11T00:50:32.375Z,21.49
2018-04-11T00:51:03.977Z,21.47
2018-04-11T00:51:35.557Z,21.48
2018-04-11T00:52:07.137Z,21.48
2018-04-11T00:52:38.792Z,21.47
2018-04-11T00:53:10.406Z,21.47
2018-04-11T00:53:42.033Z,21.48
2018-04-11T00:54:13.647Z,21.48
2018-04-11T00:54:45.264Z,21.50
2018-04-11T00:55:16.841Z,21.50
2018-04-11T00:55:48.437Z,21.50
2018-04-11T00:56:20.045Z,21.49
2018-04-11T00:56:51.634Z,21.49
2018-04-11T00:57:23.221Z,21.49
2018-04-11T00:57:54.834Z,21.48
2018-04-11T00:58:26.464Z,21.47
2018-04-11T00:58:58.096Z,21.48
2018-04-11T00:59:29.689Z,21.47
2018-04-11T01:00:01.279Z,21.46
2018-04-11T01:00:32.881Z,21.47
2018-04-11T01:01:04.499Z,21.47
2018-04-11T01:01:36.085Z,21.46
2018-04-11T01:02:07.670Z,21.47
2018-04-11T01:02:39.279Z,21.45
2018-04-11T01:03:10.933Z,21.46
2018-04-11T01:03:42.540Z,21.46
2018-04-11T01:04:14.113Z,21.47
2018-04-11T01:04:45.729Z,21.47
2018-04-11T01:05:17.322Z,21.47
2018-04-11T01:05:48.930Z,21.47
2018-04-11T01:06:20.531Z,21.46
2018-04-11T01:06:52.138Z,21.46
2018-04-11T01:07:23.722Z,21.46
2018-04-11T01:07:55.306Z,21.45
2018-04-11T01:08:26.955Z,21.47
2018-04-11T01:08:58.573Z,21.49
2018-04-11T01:09:31.181Z,21.49
2018-04-11T01:10:02.770Z,21.47
2018-04-11T01:10:34.371Z,21.47
2018-04-11T01:11:05.987Z,21.46
2018-04-11T01:11:37.583Z,21.47
2018-04-11T01:12:09.165Z,21.48
2018-04-11T01:12:40.779Z,21.47
2018-04-11T01:13:12.369Z,21.46
2018-04-11T01:13:43.988Z,21.46
2018-04-11T01:14:15.583Z,21.45
2018-04-11T01:14:47.217Z,21.43
2018-04-11T01:15:18.795Z,21.43
2018-04-11T01:15:50.383Z,21.43
2018-04-11T01:16:21.961Z,21.44
2018-04-11T01:16:53.553Z,21.43
2018-04-11T01:17:25.163Z,21.42
2018-04-11T01:17:56.741Z,21.41
2018-04-11T01:18:28.332Z,21.40
2018-04-11T01:18:59.932Z,21.42
2018-04-11T01:19:31.513Z,21.42
2018-04-11T01:20:03.178Z,21.42
2018-04-11T01:20:34.775Z,21.42
2018-04-11T01:21:06.385Z,21.41
2018-04-11T01:21:37.984Z,21.43
2018-04-11T01:22:09.599Z,21.44
2018-04-11T01:22:41.210Z,21.44
2018-04-11T01:23:12.808Z,21.45
2018-04-11T01:23:44.396Z,21.45
2018-04-11T01:24:16.010Z,21.44
2018-04-11T01:24:47.622Z,21.45
2018-04-11T01:25:19.205Z,21.44
2018-04-11T01:25:50.793Z,21.45
2018-04-11T01:26:22.430Z,21.45
2018-04-11T01:26:54.027Z,21.45
2018-04-11T01:27:25.615Z,21.46
2018-04-11T01:27:57.231Z,21.46
2018-04-11T01:28:28.817Z,21.46
2018-04-11T01:29:00.427Z,21.46
2018-04-11T01:29:32.050Z,21.46
2018-04-11T01:30:03.633Z,21.46
2018-04-11T01:30:35.252Z,21.47
2018-04-11T01:31:06.870Z,21.46
2018-04-11T01:31:38.518Z,21.46
2018-04-11T01:32:10.154Z,21.47
2018-04-11T01:32:41.770Z,21.47
2018-04-11T01:33:13.349Z,21.46
2018-04-11T01:33:44.934Z,21.46
2018-04-11T01:34:16.547Z,21.46
2018-04-11T01:34:48.162Z,21.47
2018-04-11T01:35:19.786Z,21.47
2018-04-11T01:35:51.383Z,21.46
2018-04-11T01:36:22.975Z,21.48
2018-04-11T01:36:54.651Z,21.46
2018-04-11T01:37:26.241Z,21.48
2018-04-11T01:37:57.901Z,21.47
2018-04-11T01:38:29.498Z,21.46
2018-04-11T01:39:01.082Z,21.48
2018-04-11T01:39:32.697Z,21.48
2018-04-11T01:40:04.307Z,21.49
2018-04-11T01:40:35.922Z,21.49
2018-04-11T01:41:07.538Z,21.48
2018-04-11T01:41:39.121Z,21.47
2018-04-11T01:42:10.717Z,21.49
2018-04-11T01:42:42.307Z,21.49
2018-04-11T01:43:13.941Z,21.46
2018-04-11T01:43:45.521Z,21.47
2018-04-11T01:44:17.111Z,21.47
2018-04-11T01:44:48.712Z,21.46
2018-04-11T01:45:20.374Z,21.46
2018-04-11T01:45:51.985Z,21.47
2018-04-11T01:46:23.589Z,21.46
2018-04-11T01:46:55.181Z,21.46
2018-04-11T01:47:26.794Z,21.46
2018-04-11T01:47:58.392Z,21.46
2018-04-11T01:48:30.011Z,21.45
2018-04-11T01:49:01.635Z,21.44
2018-04-11T01:49:33.234Z,21.44
2018-04-11T01:50:04.826Z,21.43
2018-04-11T01:50:36.486Z,21.43
2018-04-11T01:51:08.098Z,21.43
2018-04-11T01:51:39.691Z,21.42
2018-04-11T01:52:11.306Z,21.42
2018-04-11T01:52:42.894Z,21.42
2018-04-11T01:53:14.484Z,21.39
2018-04-11T01:53:46.094Z,21.39
2018-04-11T01:54:17.696Z,21.40
2018-04-11T01:54:49.288Z,21.40
2018-04-11T01:55:20.915Z,21.41
2018-04-11T01:55:52.546Z,21.39
2018-04-11T01:56:24.136Z,21.40
2018-04-11T01:56:55.750Z,21.41
2018-04-11T01:57:27.343Z,21.39
2018-04-11T01:57:58.934Z,21.39
2018-04-11T01:58:30.547Z,21.40
2018-04-11T01:59:02.139Z,21.38
2018-04-11T01:59:33.722Z,21.37
2018-04-11T02:00:05.310Z,21.38
2018-04-11T02:00:36.967Z,21.37
2018-04-11T02:01:08.559Z,21.38
2018-04-11T02:01:40.143Z,21.39
2018-04-11T02:02:11.767Z,21.40
2018-04-11T02:02:43.389Z,21.40
2018-04-11T02:03:14.989Z,21.39
2018-04-11T02:03:46.602Z,21.38
2018-04-11T02:04:18.205Z,21.40
2018-04-11T02:04:49.805Z,21.40
2018-04-11T02:05:21.412Z,21.39
2018-04-11T02:05:53.027Z,21.40
2018-04-11T02:06:24.619Z,21.42
2018-04-11T02:06:56.211Z,21.43
2018-04-11T02:07:27.857Z,21.43
2018-04-11T02:07:59.450Z,21.42
2018-04-11T02:08:31.030Z,21.43
2018-04-11T02:09:02.622Z,21.44
2018-04-11T02:09:34.202Z,21.45
2018-04-11T02:10:05.791Z,21.44
2018-04-11T02:10:37.395Z,21.41
2018-04-11T02:11:09.005Z,21.41
2018-04-11T02:11:40.611Z,21.42
2018-04-11T02:12:12.243Z,21.42
2018-04-11T02:12:43.859Z,21.43
2018-04-11T02:13:15.442Z,21.45
2018-04-11T02:13:47.024Z,21.46
2018-04-11T02:14:18.601Z,21.46
2018-04-11T02:14:50.201Z,21.48
2018-04-11T02:15:21.807Z,21.49
2018-04-11T02:15:53.418Z,21.49
2018-04-11T02:16:25.021Z,21.49
2018-04-11T02:16:56.689Z,21.50
2018-04-11T02:17:28.297Z,21.48
2018-04-11T02:17:59.936Z,21.51
2018-04-11T02:18:31.521Z,21.52
2018-04-11T02:19:03.130Z,21.52
2018-04-11T02:19:34.713Z,21.55
2018-04-11T02:20:06.327Z,21.58
2018-04-11T02:20:37.943Z,21.58
2018-04-11T02:21:09.535Z,21.57
2018-04-11T02:21:41.150Z,21.56
2018-04-11T02:22:12.786Z,21.58
2018-04-11T02:22:44.395Z,21.61
2018-04-11T02:23:16.002Z,21.59
2018-04-11T02:23:47.624Z,21.59
2018-04-11T02:24:19.211Z,21.54
2018-04-11T02:24:50.798Z,21.57
2018-04-11T02:25:22.410Z,21.57
2018-04-11T02:25:53.989Z,21.57
2018-04-11T02:26:25.642Z,21.58
2018-04-11T02:26:57.235Z,21.57
2018-04-11T02:27:28.813Z,21.59
2018-04-11T02:28:00.411Z,21.59
2018-04-11T02:28:31.995Z,21.60
2018-04-11T02:29:03.593Z,21.58
2018-04-11T02:29:35.180Z,21.56
2018-04-11T02:30:06.790Z,21.57
2018-04-11T02:30:38.381Z,21.59
2018-04-11T02:31:09.967Z,21.57
2018-04-11T02:31:41.569Z,21.55
2018-04-11T02:32:13.172Z,21.57
2018-04-11T02:32:44.779Z,21.55
2018-04-11T02:33:16.372Z,21.57
2018-04-11T02:33:47.991Z,21.55
2018-04-11T02:34:19.619Z,21.54
2018-04-11T02:34:51.235Z,21.54
2018-04-11T02:35:22.890Z,21.54
2018-04-11T02:35:54.497Z,21.55
2018-04-11T02:36:26.085Z,21.52
2018-04-11T02:36:57.699Z,21.44
2018-04-11T02:37:29.301Z,21.54
2018-04-11T02:38:00.919Z,21.52
2018-04-11T02:38:32.515Z,21.51
2018-04-11T02:39:04.115Z,21.52
2018-04-11T02:39:35.698Z,21.51
2018-04-11T02:40:07.354Z,21.52
2018-04-11T02:40:38.957Z,21.53
2018-04-11T02:41:10.544Z,21.62
2018-04-11T02:41:42.130Z,21.65
2018-04-11T02:42:13.747Z,21.66
2018-04-11T02:42:45.354Z,21.62
2018-04-11T02:43:16.967Z,21.60
2018-04-11T02:43:48.548Z,21.57
2018-04-11T02:44:20.135Z,21.53
2018-04-11T02:44:51.757Z,21.51
2018-04-11T02:45:23.434Z,21.50
2018-04-11T02:45:55.083Z,21.49
2018-04-11T02:46:26.694Z,21.48
2018-04-11T02:46:58.302Z,21.48
2018-04-11T02:47:29.901Z,21.48
2018-04-11T02:48:01.538Z,21.46
2018-04-11T02:48:33.131Z,21.46
2018-04-11T02:49:04.715Z,21.46
2018-04-11T02:49:36.317Z,21.46
2018-04-11T02:50:07.911Z,21.44
2018-04-11T02:50:39.540Z,21.46
2018-04-11T02:51:11.126Z,21.46
2018-04-11T02:51:42.733Z,21.46
2018-04-11T02:52:14.340Z,21.46
2018-04-11T02:52:46.235Z,21.46
2018-04-11T02:53:17.855Z,21.52
2018-04-11T02:53:49.517Z,21.60
2018-04-11T02:54:21.131Z,21.67
2018-04-11T02:54:52.746Z,21.73
2018-04-11T02:55:24.358Z,21.78
2018-04-11T02:55:55.951Z,21.85
2018-04-11T02:56:27.558Z,21.81
2018-04-11T02:56:59.151Z,21.76
2018-04-11T02:57:30.744Z,21.73
2018-04-11T02:58:02.370Z,21.69
2018-04-11T02:58:33.976Z,21.64
2018-04-11T02:59:05.632Z,21.59
2018-04-11T02:59:37.231Z,21.55
2018-04-11T03:00:08.830Z,21.52
2018-04-11T03:00:40.414Z,21.50
2018-04-11T03:01:12.075Z,21.48
2018-04-11T03:01:43.676Z,21.45
2018-04-11T03:02:15.279Z,21.43
2018-04-11T03:02:46.891Z,21.42
2018-04-11T03:03:18.510Z,21.42
2018-04-11T03:03:50.129Z,21.41
2018-04-11T03:04:21.763Z,21.41
2018-04-11T03:04:53.357Z,21.42
2018-04-11T03:05:24.946Z,21.43
2018-04-11T03:05:56.553Z,21.44
2018-04-11T03:06:28.597Z,21.43
2018-04-11T03:07:00.199Z,21.42
2018-04-11T03:07:31.812Z,21.42
2018-04-11T03:08:03.403Z,21.43
2018-04-11T03:08:35.015Z,21.42
2018-04-11T03:09:06.640Z,21.42
2018-04-11T03:09:38.251Z,21.41
2018-04-11T03:10:09.895Z,21.43
2018-04-11T03:10:41.477Z,21.44
2018-04-11T03:11:13.076Z,21.45
2018-04-11T03:11:44.666Z,21.43
2018-04-11T03:12:16.279Z,21.44
2018-04-11T03:12:47.871Z,21.43
2018-04-11T03:13:19.483Z,21.42
2018-04-11T03:13:51.081Z,21.42
2018-04-11T03:14:22.685Z,21.41
2018-04-11T03:14:54.275Z,21.40
2018-04-11T03:15:25.903Z,21.41
2018-04-11T03:15:57.494Z,21.40
2018-04-11T03:16:29.082Z,21.40
2018-04-11T03:17:00.667Z,21.39
2018-04-11T03:17:32.283Z,21.39
2018-04-11T03:18:03.915Z,21.39
2018-04-11T03:18:35.509Z,21.39
2018-04-11T03:19:07.127Z,21.40
2018-04-11T03:19:38.725Z,21.38
2018-04-11T03:20:10.309Z,21.36
2018-04-11T03:20:41.920Z,21.35
2018-04-11T03:21:13.515Z,21.34
2018-04-11T03:21:45.112Z,21.33
2018-04-11T03:22:16.728Z,21.33
2018-04-11T03:22:48.338Z,21.32
2018-04-11T03:23:19.927Z,21.32
2018-04-11T03:23:51.520Z,21.33
2018-04-11T03:24:23.108Z,21.33
2018-04-11T03:24:54.693Z,21.32
2018-04-11T03:25:26.297Z,21.30
2018-04-11T03:25:57.895Z,21.29
2018-04-11T03:26:29.469Z,21.28
2018-04-11T03:27:01.072Z,21.26
2018-04-11T03:27:32.663Z,21.27
2018-04-11T03:28:04.276Z,21.25
2018-04-11T03:28:35.898Z,21.25
2018-04-11T03:29:07.487Z,21.24
2018-04-11T03:29:39.068Z,21.25
2018-04-11T03:30:10.654Z,21.25
2018-04-11T03:30:42.303Z,21.24
2018-04-11T03:31:13.917Z,21.23
2018-04-11T03:31:45.543Z,21.25
2018-04-11T03:32:17.118Z,21.24
2018-04-11T03:32:48.704Z,21.23
2018-04-11T03:33:20.320Z,21.22
2018-04-11T03:33:51.955Z,21.23
2018-04-11T03:34:23.620Z,21.24
2018-04-11T03:34:55.229Z,21.24
2018-04-11T03:35:26.819Z,21.24
2018-04-11T03:35:58.434Z,21.24
2018-04-11T03:36:30.051Z,21.24
2018-04-11T03:37:01.634Z,21.23
2018-04-11T03:37:33.228Z,21.23
2018-04-11T03:38:04.843Z,21.23
2018-04-11T03:38:36.450Z,21.21
2018-04-11T03:39:08.077Z,21.22
2018-04-11T03:39:39.667Z,21.22
2018-04-11T03:40:11.282Z,21.23
2018-04-11T03:40:42.885Z,21.23
2018-04-11T03:41:14.555Z,21.23
2018-04-11T03:41:46.147Z,21.24
2018-04-11T03:42:17.725Z,21.25
2018-04-11T03:42:49.335Z,21.27
2018-04-11T03:43:20.927Z,21.26
2018-04-11T03:43:52.516Z,21.26
2018-04-11T03:44:24.127Z,21.25
2018-04-11T03:44:55.719Z,21.26
2018-04-11T03:45:27.322Z,21.26
2018-04-11T03:45:58.939Z,21.26
2018-04-11T03:46:30.683Z,21.27
2018-04-11T03:47:02.295Z,21.25
2018-04-11T03:47:33.911Z,21.27
2018-04-11T03:48:05.503Z,21.28
2018-04-11T03:48:37.106Z,21.27
2018-04-11T03:49:08.700Z,21.28
2018-04-11T03:49:40.303Z,21.29
2018-04-11T03:50:11.877Z,21.29
2018-04-11T03:50:43.462Z,21.29
2018-04-11T03:51:15.052Z,21.29
2018-04-11T03:51:46.674Z,21.29
2018-04-11T03:52:18.263Z,21.27
2018-04-11T03:52:49.873Z,21.27
2018-04-11T03:53:21.477Z,21.29
2018-04-11T03:53:53.081Z,21.29
2018-04-11T03:54:24.684Z,21.30
2018-04-11T03:54:56.273Z,21.29
2018-04-11T03:55:27.867Z,21.30
2018-04-11T03:55:59.474Z,21.29
2018-04-11T03:56:31.132Z,21.30
2018-04-11T03:57:02.727Z,21.29
2018-04-11T03:57:34.338Z,21.27
2018-04-11T03:58:05.934Z,21.28
2018-04-11T03:58:37.539Z,21.27
2018-04-11T03:59:09.123Z,21.27
2018-04-11T03:59:41.464Z,21.27
2018-04-11T04:00:13.091Z,21.27
2018-04-11T04:00:44.674Z,21.29
2018-04-11T04:01:16.260Z,21.29
2018-04-11T04:01:47.921Z,21.29
2018-04-11T04:02:19.534Z,21.29
2018-04-11T04:02:51.150Z,21.30
2018-04-11T04:03:22.766Z,21.27
2018-04-11T04:03:54.354Z,21.30
2018-04-11T04:04:25.953Z,21.29
2018-04-11T04:04:57.572Z,21.28
2018-04-11T04:05:29.186Z,21.28
2018-04-11T04:06:00.802Z,21.28
2018-04-11T04:06:32.380Z,21.27
2018-04-11T04:07:04.016Z,21.26
2018-04-11T04:07:35.612Z,21.24
2018-04-11T04:08:07.225Z,21.25
2018-04-11T04:08:38.819Z,21.24
2018-04-11T04:09:10.450Z,21.24
2018-04-11T04:09:42.035Z,21.24
2018-04-11T04:10:13.628Z,21.23
2018-04-11T04:10:45.238Z,21.24
2018-04-11T04:11:16.830Z,21.22
2018-04-11T04:11:48.444Z,21.22
2018-04-11T04:12:20.034Z,21.21
2018-04-11T04:12:51.690Z,21.22
2018-04-11T04:13:23.307Z,21.19
2018-04-11T04:13:54.947Z,21.19
2018-04-11T04:14:26.551Z,21.18
2018-04-11T04:14:58.166Z,21.18
2018-04-11T04:15:29.763Z,21.17
2018-04-11T04:16:01.353Z,21.18
2018-04-11T04:16:32.939Z,21.17
2018-04-11T04:17:04.534Z,21.17
2018-04-11T04:17:36.118Z,21.16
2018-04-11T04:18:07.698Z,21.15
2018-04-11T04:18:39.306Z,21.14
2018-04-11T04:19:10.899Z,21.12
2018-04-11T04:19:42.486Z,21.14
2018-04-11T04:20:14.133Z,21.14
2018-04-11T04:20:45.709Z,21.15
2018-04-11T04:21:17.324Z,21.13
2018-04-11T04:21:48.937Z,21.12
2018-04-11T04:22:20.551Z,21.13
2018-04-11T04:22:52.143Z,21.12
2018-04-11T04:23:23.731Z,21.14
2018-04-11T04:23:55.385Z,21.14
2018-04-11T04:24:26.999Z,21.15
2018-04-11T04:24:58.599Z,21.16
2018-04-11T04:25:30.223Z,21.15
2018-04-11T04:26:01.821Z,21.16
2018-04-11T04:26:33.407Z,21.16
2018-04-11T04:27:05.014Z,21.17
2018-04-11T04:27:36.617Z,21.17
2018-04-11T04:28:08.210Z,21.17
2018-04-11T04:28:39.795Z,21.17
2018-04-11T04:29:11.401Z,21.18
2018-04-11T04:29:43.009Z,21.20
2018-04-11T04:30:14.618Z,21.22
2018-04-11T04:30:46.242Z,21.24
2018-04-11T04:31:17.850Z,21.24
2018-04-11T04:31:49.593Z,21.25
2018-04-11T04:32:21.230Z,21.25
2018-04-11T04:32:52.829Z,21.25
2018-04-11T04:33:24.405Z,21.25
2018-04-11T04:33:55.991Z,21.25
2018-04-11T04:34:27.599Z,21.25
2018-04-11T04:34:59.202Z,21.26
2018-04-11T04:35:30.783Z,21.27
2018-04-11T04:36:02.427Z,21.27
2018-04-11T04:36:34.027Z,21.27
2018-04-11T04:37:05.639Z,21.29
2018-04-11T04:37:37.229Z,21.28
2018-04-11T04:38:08.805Z,21.28
2018-04-11T04:38:40.395Z,21.27
2018-04-11T04:39:11.993Z,21.28
2018-04-11T04:39:43.629Z,21.28
2018-04-11T04:40:15.248Z,21.29
2018-04-11T04:40:46.847Z,21.30
2018-04-11T04:41:18.495Z,21.30
2018-04-11T04:41:50.088Z,21.31
2018-04-11T04:42:21.713Z,21.29
2018-04-11T04:42:53.319Z,21.29
2018-04-11T04:43:24.926Z,21.30
2018-04-11T04:43:56.513Z,21.30
2018-04-11T04:44:28.123Z,21.31
2018-04-11T04:44:59.753Z,21.31
2018-04-11T04:45:31.349Z,21.30
2018-04-11T04:46:02.963Z,21.32
2018-04-11T04:46:34.549Z,21.31
2018-04-11T04:47:06.162Z,21.31
2018-04-11T04:47:37.781Z,21.29
2018-04-11T04:48:09.372Z,21.28
2018-04-11T04:48:40.963Z,21.30
2018-04-11T04:49:12.550Z,21.32
2018-04-11T04:49:44.158Z,21.31
2018-04-11T04:50:15.760Z,21.31
2018-04-11T04:50:47.351Z,21.29
2018-04-11T04:51:18.964Z,21.31
2018-04-11T04:51:50.603Z,21.31
2018-04-11T04:52:22.199Z,21.31
2018-04-11T04:52:53.791Z,21.31
2018-04-11T04:53:25.398Z,21.32
2018-04-11T04:53:57.021Z,21.32
2018-04-11T04:54:28.631Z,21.33
2018-04-11T04:55:00.261Z,21.35
2018-04-11T04:55:31.847Z,21.36
2018-04-11T04:56:03.427Z,21.36
2018-04-11T04:56:35.043Z,21.35
2018-04-11T04:57:06.644Z,21.35
2018-04-11T04:57:38.254Z,21.33
2018-04-11T04:58:09.860Z,21.32
2018-04-11T04:58:41.474Z,21.33
2018-04-11T04:59:13.077Z,21.32
2018-04-11T04:59:44.710Z,21.32
2018-04-11T05:00:16.289Z,21.36
2018-04-11T05:00:47.898Z,21.35
2018-04-11T05:01:19.521Z,21.34
2018-04-11T05:01:51.129Z,21.32
2018-04-11T05:02:22.736Z,21.32
2018-04-11T05:02:54.358Z,21.34
2018-04-11T05:03:26.021Z,21.34
2018-04-11T05:03:58.684Z,21.33
2018-04-11T05:04:30.280Z,21.34
2018-04-11T05:05:01.911Z,21.33
2018-04-11T05:05:33.567Z,21.33
2018-04-11T05:06:05.163Z,21.34
2018-04-11T05:06:36.776Z,21.34
2018-04-11T05:07:08.353Z,21.32
2018-04-11T05:07:39.976Z,21.31
2018-04-11T05:08:11.576Z,21.32
2018-04-11T05:08:43.171Z,21.32
2018-04-11T05:09:14.759Z,21.30
2018-04-11T05:09:46.354Z,21.31
2018-04-11T05:10:18.007Z,21.29
2018-04-11T05:10:49.593Z,21.28
2018-04-11T05:11:21.183Z,21.28
2018-04-11T05:11:52.794Z,21.27
2018-04-11T05:12:24.410Z,21.26
2018-04-11T05:12:56.007Z,21.27
2018-04-11T05:13:27.658Z,21.24
2018-04-11T05:13:59.238Z,21.25
2018-04-11T05:14:30.826Z,21.25
2018-04-11T05:15:02.431Z,21.24
2018-04-11T05:15:34.043Z,21.23
2018-04-11T05:16:05.641Z,21.21
2018-04-11T05:16:37.236Z,21.21
2018-04-11T05:17:08.843Z,21.21
2018-04-11T05:17:40.435Z,21.21
2018-04-11T05:18:12.010Z,21.20
2018-04-11T05:18:43.657Z,21.19
2018-04-11T05:19:15.271Z,21.19
2018-04-11T05:19:47.091Z,21.17
2018-04-11T05:20:18.705Z,21.18
2018-04-11T05:20:50.295Z,21.17
2018-04-11T05:21:21.897Z,21.17
2018-04-11T05:21:53.519Z,21.14
2018-04-11T05:22:25.121Z,21.16
2018-04-11T05:22:56.726Z,21.15
2018-04-11T05:23:28.328Z,21.15
2018-04-11T05:23:59.989Z,21.15
2018-04-11T05:24:31.603Z,21.13
2018-04-11T05:25:03.220Z,21.14
2018-04-11T05:25:34.831Z,21.15
2018-04-11T05:26:06.438Z,21.14
2018-04-11T05:26:38.040Z,21.14
2018-04-11T05:27:09.656Z,21.14
2018-04-11T05:27:41.254Z,21.14
2018-04-11T05:28:12.872Z,21.14
2018-04-11T05:28:44.502Z,21.14
2018-04-11T05:29:16.135Z,21.12
2018-04-11T05:29:47.751Z,21.15
2018-04-11T05:30:19.374Z,21.16
2018-04-11T05:30:51.046Z,21.17
2018-04-11T05:31:22.638Z,21.17
2018-04-11T05:31:54.268Z,21.17
2018-04-11T05:32:25.859Z,21.17
2018-04-11T05:32:57.455Z,21.19
2018-04-11T05:33:29.042Z,21.19
2018-04-11T05:34:00.639Z,21.19
2018-04-11T05:34:32.242Z,21.19
2018-04-11T05:35:03.839Z,21.19
2018-04-11T05:35:35.469Z,21.19
2018-04-11T05:36:07.098Z,21.20
2018-04-11T05:36:38.754Z,21.20
2018-04-11T05:37:10.358Z,21.21
2018-04-11T05:37:41.961Z,21.21
2018-04-11T05:38:13.555Z,21.23
2018-04-11T05:38:45.163Z,21.22
2018-04-11T05:39:16.778Z,21.23
2018-04-11T05:39:48.390Z,21.22
2018-04-11T05:40:20.020Z,21.24
2018-04-11T05:40:51.623Z,21.22
2018-04-11T05:41:23.197Z,21.21
2018-04-11T05:41:54.811Z,21.24
2018-04-11T05:42:26.479Z,21.22
2018-04-11T05:42:58.071Z,21.22
2018-04-11T05:43:29.690Z,21.02
2018-04-11T05:44:01.307Z,21.20
2018-04-11T05:44:32.923Z,21.21
2018-04-11T05:45:04.514Z,21.10
2018-04-11T05:45:36.110Z,21.20
2018-04-11T05:46:07.721Z,21.21
2018-04-11T05:46:39.353Z,21.20
2018-04-11T05:47:10.967Z,21.21
2018-04-11T05:47:42.630Z,21.19
2018-04-11T05:48:14.261Z,21.21
2018-04-11T05:48:45.837Z,21.20
2018-04-11T05:49:17.423Z,21.19
2018-04-11T05:49:49.026Z,21.19
2018-04-11T05:50:20.649Z,21.20
2018-04-11T05:50:52.301Z,21.18
2018-04-11T05:51:23.900Z,21.19
2018-04-11T05:51:55.508Z,21.19
2018-04-11T05:52:27.091Z,21.18
2018-04-11T05:52:58.687Z,21.17
2018-04-11T05:53:30.287Z,21.17
2018-04-11T05:54:01.910Z,21.17
2018-04-11T05:54:33.497Z,21.18
2018-04-11T05:55:05.094Z,21.18
2018-04-11T05:55:36.738Z,21.19
2018-04-11T05:56:08.357Z,21.18
2018-04-11T05:56:39.990Z,21.19
2018-04-11T05:57:11.602Z,21.20
2018-04-11T05:57:43.194Z,21.20
2018-04-11T05:58:14.814Z,21.19
2018-04-11T05:58:46.463Z,21.20
2018-04-11T05:59:18.039Z,21.18
2018-04-11T05:59:49.628Z,21.20
2018-04-11T06:00:21.228Z,21.20
2018-04-11T06:00:52.901Z,21.20
2018-04-11T06:01:24.467Z,21.20
2018-04-11T06:01:56.056Z,21.21
2018-04-11T06:02:27.694Z,21.21
2018-04-11T06:02:59.327Z,21.21
2018-04-11T06:03:30.915Z,21.20
2018-04-11T06:04:02.523Z,21.19
2018-04-11T06:04:34.097Z,21.20
2018-04-11T06:05:05.706Z,21.20
2018-04-11T06:05:37.302Z,21.21
2018-04-11T06:06:08.895Z,21.22
2018-04-11T06:06:40.480Z,21.21
2018-04-11T06:07:12.081Z,21.22
2018-04-11T06:07:43.680Z,21.24
2018-04-11T06:08:15.304Z,21.25
2018-04-11T06:08:46.914Z,21.24
2018-04-11T06:09:18.504Z,21.25
2018-04-11T06:09:50.118Z,21.25
2018-04-11T06:10:21.729Z,21.24
2018-04-11T06:10:53.323Z,21.24
2018-04-11T06:11:24.934Z,21.23
2018-04-11T06:11:56.523Z,21.22
2018-04-11T06:12:28.130Z,21.24
2018-04-11T06:12:59.777Z,21.17
2018-04-11T06:13:31.369Z,21.24
2018-04-11T06:14:02.979Z,21.24
2018-04-11T06:14:34.566Z,21.22
2018-04-11T06:15:06.185Z,21.22
2018-04-11T06:15:37.783Z,21.21
2018-04-11T06:16:09.398Z,21.21
2018-04-11T06:16:40.993Z,21.22
2018-04-11T06:17:12.671Z,21.24
2018-04-11T06:17:44.286Z,21.21
2018-04-11T06:18:15.884Z,21.23
2018-04-11T06:18:47.497Z,21.24
2018-04-11T06:19:19.115Z,21.22
2018-04-11T06:19:50.723Z,21.21
2018-04-11T06:20:22.310Z,21.19
2018-04-11T06:20:53.899Z,21.19
2018-04-11T06:21:25.493Z,21.19
2018-04-11T06:21:57.102Z,21.18
2018-04-11T06:22:28.735Z,21.18
2018-04-11T06:23:00.391Z,21.17
2018-04-11T06:23:31.967Z,21.18
2018-04-11T06:24:03.579Z,21.18
2018-04-11T06:24:35.197Z,21.18
2018-04-11T06:25:06.841Z,21.18
2018-04-11T06:25:38.434Z,21.19
2018-04-11T06:26:10.023Z,21.20
2018-04-11T06:26:41.651Z,21.20
2018-04-11T06:27:13.243Z,21.21
2018-04-11T06:27:44.831Z,21.22
2018-04-11T06:28:16.472Z,21.20
2018-04-11T06:28:48.057Z,21.21
2018-04-11T06:29:19.651Z,21.21
2018-04-11T06:29:51.302Z,21.22
2018-04-11T06:30:22.959Z,21.23
2018-04-11T06:30:54.537Z,21.24
2018-04-11T06:31:26.116Z,21.25
2018-04-11T06:31:57.714Z,21.27
2018-04-11T06:32:29.355Z,21.26
2018-04-11T06:33:00.967Z,21.27
2018-04-11T06:33:32.561Z,21.28
2018-04-11T06:34:04.170Z,21.28
2018-04-11T06:34:35.784Z,21.29
2018-04-11T06:35:07.392Z,21.30
2018-04-11T06:35:38.979Z,21.29
2018-04-11T06:36:10.591Z,21.30
2018-04-11T06:36:42.187Z,21.31
2018-04-11T06:37:13.838Z,21.31
2018-04-11T06:37:45.437Z,21.29
2018-04-11T06:38:17.050Z,21.29
2018-04-11T06:38:48.663Z,21.29
2018-04-11T06:39:20.261Z,21.28
2018-04-11T06:39:51.877Z,21.28
2018-04-11T06:40:23.467Z,21.29
2018-04-11T06:40:55.058Z,21.29
2018-04-11T06:41:26.671Z,21.29
2018-04-11T06:41:58.331Z,21.30
2018-04-11T06:42:29.967Z,21.28
2018-04-11T06:43:01.608Z,21.28
2018-04-11T06:43:33.199Z,21.26
2018-04-11T06:44:04.797Z,21.28
2018-04-11T06:44:36.395Z,21.26
2018-04-11T06:45:08.046Z,21.27
2018-04-11T06:45:39.662Z,21.27
2018-04-11T06:46:11.295Z,21.28
2018-04-11T06:46:42.843Z,21.29
2018-04-11T06:47:14.439Z,21.30